sensor_id;sensor_type;location;lat;lon;timestamp;pressure;altitude;pressure_sealevel;temperature;humidity
44441;BME280;30146;52.268;20.944;2023-04-12T00:00:44;99621.66;;;10.37;59.97
44441;BME280;30146;52.268;20.944;2023-04-12T00:03:15;99617.45;;;10.35;60.24
44441;BME280;30146;52.268;20.944;2023-04-12T00:05:49;99618.70;;;10.31;60.09
44441;BME280;30146;52.268;20.944;2023-04-12T00:08:23;99617.41;;;10.28;60.24
44441;BME280;30146;52.268;20.944;2023-04-12T00:11:03;99611.12;;;10.25;60.20
44441;BME280;30146;52.268;20.944;2023-04-12T00:13:34;99604.23;;;10.19;60.49
44441;BME280;30146;52.268;20.944;2023-04-12T00:16:06;99608.23;;;10.15;60.36
44441;BME280;30146;52.268;20.944;2023-04-12T00:18:37;99611.92;;;10.10;60.49
44441;BME280;30146;52.268;20.944;2023-04-12T00:21:08;99617.11;;;10.07;60.67
44441;BME280;30146;52.268;20.944;2023-04-12T00:23:40;99622.95;;;10.05;60.62
44441;BME280;30146;52.268;20.944;2023-04-12T00:26:11;99621.29;;;10.02;60.78
44441;BME280;30146;52.268;20.944;2023-04-12T00:28:42;99619.61;;;10.00;60.69
44441;BME280;30146;52.268;20.944;2023-04-12T00:31:14;99621.00;;;9.99;60.66
44441;BME280;30146;52.268;20.944;2023-04-12T00:33:44;99630.40;;;9.99;60.74
44441;BME280;30146;52.268;20.944;2023-04-12T00:36:16;99632.95;;;9.99;61.09
44441;BME280;30146;52.268;20.944;2023-04-12T00:38:47;99625.59;;;10.00;60.92
44441;BME280;30146;52.268;20.944;2023-04-12T00:41:18;99619.78;;;10.01;61.04
44441;BME280;30146;52.268;20.944;2023-04-12T00:43:49;99611.58;;;10.01;61.11
44441;BME280;30146;52.268;20.944;2023-04-12T00:46:20;99602.20;;;10.00;60.96
44441;BME280;30146;52.268;20.944;2023-04-12T00:48:53;99594.73;;;9.99;60.88
44441;BME280;30146;52.268;20.944;2023-04-12T00:51:25;99588.45;;;9.97;60.90
44441;BME280;30146;52.268;20.944;2023-04-12T00:54:01;99588.98;;;9.95;61.01
44441;BME280;30146;52.268;20.944;2023-04-12T00:56:34;99588.48;;;9.95;60.96
44441;BME280;30146;52.268;20.944;2023-04-12T00:59:06;99589.19;;;9.93;61.10
44441;BME280;30146;52.268;20.944;2023-04-12T01:01:38;99589.38;;;9.91;60.87
44441;BME280;30146;52.268;20.944;2023-04-12T01:04:10;99584.48;;;9.89;61.02
44441;BME280;30146;52.268;20.944;2023-04-12T01:06:52;99587.91;;;9.88;61.02
44441;BME280;30146;52.268;20.944;2023-04-12T01:09:38;99598.52;;;9.88;61.06
44441;BME280;30146;52.268;20.944;2023-04-12T01:12:25;99594.08;;;9.87;61.10
44441;BME280;30146;52.268;20.944;2023-04-12T01:15:03;99591.66;;;9.89;61.36
44441;BME280;30146;52.268;20.944;2023-04-12T01:17:41;99592.02;;;9.89;61.31
44441;BME280;30146;52.268;20.944;2023-04-12T01:20:18;99599.83;;;9.90;61.20
44441;BME280;30146;52.268;20.944;2023-04-12T01:26:02;99607.29;;;9.93;61.29
44441;BME280;30146;52.268;20.944;2023-04-12T01:28:40;99607.64;;;9.93;61.41
44441;BME280;30146;52.268;20.944;2023-04-12T01:31:14;99607.44;;;9.95;61.65
44441;BME280;30146;52.268;20.944;2023-04-12T01:33:46;99612.69;;;9.97;61.51
44441;BME280;30146;52.268;20.944;2023-04-12T01:36:21;99614.86;;;9.98;61.63
44441;BME280;30146;52.268;20.944;2023-04-12T01:38:54;99615.73;;;9.99;61.54
44441;BME280;30146;52.268;20.944;2023-04-12T01:41:25;99614.02;;;9.99;61.51
44441;BME280;30146;52.268;20.944;2023-04-12T01:43:56;99612.65;;;9.99;61.39
44441;BME280;30146;52.268;20.944;2023-04-12T01:46:28;99615.69;;;10.00;61.68
44441;BME280;30146;52.268;20.944;2023-04-12T01:49:01;99611.09;;;9.99;61.53
44441;BME280;30146;52.268;20.944;2023-04-12T01:51:41;99611.91;;;10.01;61.62
44441;BME280;30146;52.268;20.944;2023-04-12T01:54:18;99612.92;;;10.02;61.69
44441;BME280;30146;52.268;20.944;2023-04-12T01:56:53;99608.45;;;10.03;61.55
44441;BME280;30146;52.268;20.944;2023-04-12T01:59:31;99599.73;;;10.04;61.75
44441;BME280;30146;52.268;20.944;2023-04-12T02:02:04;99600.58;;;10.05;61.65
44441;BME280;30146;52.268;20.944;2023-04-12T02:04:37;99605.19;;;10.05;61.82
44441;BME280;30146;52.268;20.944;2023-04-12T02:07:09;99605.89;;;10.04;61.61
44441;BME280;30146;52.268;20.944;2023-04-12T02:09:41;99602.99;;;10.03;61.57
44441;BME280;30146;52.268;20.944;2023-04-12T02:12:12;99597.39;;;10.02;61.86
44441;BME280;30146;52.268;20.944;2023-04-12T02:14:43;99596.01;;;10.03;61.71
44441;BME280;30146;52.268;20.944;2023-04-12T02:17:14;99591.76;;;10.02;61.73
44441;BME280;30146;52.268;20.944;2023-04-12T02:19:46;99592.95;;;10.01;61.85
44441;BME280;30146;52.268;20.944;2023-04-12T02:22:17;99590.58;;;10.01;61.93
44441;BME280;30146;52.268;20.944;2023-04-12T02:24:49;99591.77;;;10.01;61.71
44441;BME280;30146;52.268;20.944;2023-04-12T02:27:20;99588.03;;;10.00;61.93
44441;BME280;30146;52.268;20.944;2023-04-12T02:29:51;99585.46;;;10.00;61.89
44441;BME280;30146;52.268;20.944;2023-04-12T02:32:23;99584.61;;;10.00;61.92
44441;BME280;30146;52.268;20.944;2023-04-12T02:34:54;99582.91;;;10.00;61.86
44441;BME280;30146;52.268;20.944;2023-04-12T02:37:28;99584.44;;;10.00;61.99
44441;BME280;30146;52.268;20.944;2023-04-12T02:40:00;99586.83;;;10.00;62.14
44441;BME280;30146;52.268;20.944;2023-04-12T02:42:33;99596.55;;;10.01;62.20
44441;BME280;30146;52.268;20.944;2023-04-12T02:45:06;99600.52;;;9.99;61.80
44441;BME280;30146;52.268;20.944;2023-04-12T02:47:37;99606.34;;;9.98;62.03
44441;BME280;30146;52.268;20.944;2023-04-12T02:50:10;99604.14;;;9.97;62.17
44441;BME280;30146;52.268;20.944;2023-04-12T02:52:59;99603.10;;;9.97;62.04
44441;BME280;30146;52.268;20.944;2023-04-12T02:55:30;99607.55;;;9.97;62.06
44441;BME280;30146;52.268;20.944;2023-04-12T02:58:02;99611.64;;;9.98;62.05
44441;BME280;30146;52.268;20.944;2023-04-12T03:00:35;99609.41;;;9.98;62.15
44441;BME280;30146;52.268;20.944;2023-04-12T03:03:06;99608.41;;;9.97;62.30
44441;BME280;30146;52.268;20.944;2023-04-12T03:05:38;99609.61;;;9.97;62.14
44441;BME280;30146;52.268;20.944;2023-04-12T03:08:09;99602.79;;;9.96;62.23
44441;BME280;30146;52.268;20.944;2023-04-12T03:10:45;99602.97;;;9.96;62.39
44441;BME280;30146;52.268;20.944;2023-04-12T03:13:16;99607.41;;;9.97;62.42
44441;BME280;30146;52.268;20.944;2023-04-12T03:15:58;99607.36;;;9.98;62.35
44441;BME280;30146;52.268;20.944;2023-04-12T03:18:34;99608.04;;;9.98;62.51
44441;BME280;30146;52.268;20.944;2023-04-12T03:21:06;99609.58;;;9.98;62.44
44441;BME280;30146;52.268;20.944;2023-04-12T03:23:37;99609.58;;;9.98;62.51
44441;BME280;30146;52.268;20.944;2023-04-12T03:26:16;99619.48;;;9.98;62.42
44441;BME280;30146;52.268;20.944;2023-04-12T03:29:02;99621.20;;;9.97;62.53
44441;BME280;30146;52.268;20.944;2023-04-12T03:31:35;99619.16;;;9.97;62.58
44441;BME280;30146;52.268;20.944;2023-04-12T03:34:09;99618.80;;;9.98;62.55
44441;BME280;30146;52.268;20.944;2023-04-12T03:36:44;99616.77;;;9.97;62.44
44441;BME280;30146;52.268;20.944;2023-04-12T03:39:25;99611.17;;;9.95;62.62
44441;BME280;30146;52.268;20.944;2023-04-12T03:41:57;99610.65;;;9.96;62.76
44441;BME280;30146;52.268;20.944;2023-04-12T03:44:30;99612.02;;;9.96;62.92
44441;BME280;30146;52.268;20.944;2023-04-12T03:47:04;99610.98;;;9.97;62.70
44441;BME280;30146;52.268;20.944;2023-04-12T03:49:37;99609.92;;;9.98;62.72
44441;BME280;30146;52.268;20.944;2023-04-12T03:52:14;99614.38;;;9.98;62.93
44441;BME280;30146;52.268;20.944;2023-04-12T03:54:46;99615.89;;;9.98;62.80
44441;BME280;30146;52.268;20.944;2023-04-12T03:57:24;99618.45;;;9.99;62.70
44441;BME280;30146;52.268;20.944;2023-04-12T03:59:55;99617.41;;;10.00;62.96
44441;BME280;30146;52.268;20.944;2023-04-12T04:02:28;99617.58;;;9.99;62.95
44441;BME280;30146;52.268;20.944;2023-04-12T04:05:00;99620.81;;;10.00;62.90
44441;BME280;30146;52.268;20.944;2023-04-12T04:07:32;99617.73;;;10.00;62.96
44441;BME280;30146;52.268;20.944;2023-04-12T04:10:06;99618.75;;;10.00;63.04
44441;BME280;30146;52.268;20.944;2023-04-12T04:12:39;99614.14;;;10.01;62.85
44441;BME280;30146;52.268;20.944;2023-04-12T04:15:14;99613.94;;;10.02;62.80
44441;BME280;30146;52.268;20.944;2023-04-12T04:17:45;99610.88;;;10.02;62.97
44441;BME280;30146;52.268;20.944;2023-04-12T04:20:18;99612.91;;;10.03;63.05
44441;BME280;30146;52.268;20.944;2023-04-12T04:22:52;99617.99;;;10.05;63.08
44441;BME280;30146;52.268;20.944;2023-04-12T04:25:24;99621.22;;;10.06;63.14
44441;BME280;30146;52.268;20.944;2023-04-12T04:28:02;99625.30;;;10.06;63.04
44441;BME280;30146;52.268;20.944;2023-04-12T04:30:34;99622.91;;;10.07;62.96
44441;BME280;30146;52.268;20.944;2023-04-12T04:33:12;99624.43;;;10.07;63.02
44441;BME280;30146;52.268;20.944;2023-04-12T04:35:46;99626.82;;;10.08;63.24
44441;BME280;30146;52.268;20.944;2023-04-12T04:38:29;99629.86;;;10.09;63.24
44441;BME280;30146;52.268;20.944;2023-04-12T04:41:10;99634.31;;;10.09;63.18
44441;BME280;30146;52.268;20.944;2023-04-12T04:43:52;99636.20;;;10.08;63.12
44441;BME280;30146;52.268;20.944;2023-04-12T04:46:24;99640.98;;;10.08;62.99
44441;BME280;30146;52.268;20.944;2023-04-12T04:49:00;99642.55;;;10.07;63.00
44441;BME280;30146;52.268;20.944;2023-04-12T04:51:31;99648.20;;;10.06;63.10
44441;BME280;30146;52.268;20.944;2023-04-12T04:54:04;99649.73;;;10.07;63.05
44441;BME280;30146;52.268;20.944;2023-04-12T04:56:36;99651.23;;;10.07;63.24
44441;BME280;30146;52.268;20.944;2023-04-12T04:59:07;99652.43;;;10.08;63.06
44441;BME280;30146;52.268;20.944;2023-04-12T05:01:38;99654.81;;;10.08;63.14
44441;BME280;30146;52.268;20.944;2023-04-12T05:04:10;99653.95;;;10.09;63.14
44441;BME280;30146;52.268;20.944;2023-04-12T05:06:42;99651.06;;;10.08;63.25
44441;BME280;30146;52.268;20.944;2023-04-12T05:09:13;99657.51;;;10.10;63.30
44441;BME280;30146;52.268;20.944;2023-04-12T05:11:49;99656.61;;;10.12;63.33
44441;BME280;30146;52.268;20.944;2023-04-12T05:14:20;99659.65;;;10.14;63.41
44441;BME280;30146;52.268;20.944;2023-04-12T05:16:52;99657.58;;;10.15;63.21
44441;BME280;30146;52.268;20.944;2023-04-12T05:19:23;99660.46;;;10.16;63.05
44441;BME280;30146;52.268;20.944;2023-04-12T05:21:54;99664.22;;;10.16;63.05
44441;BME280;30146;52.268;20.944;2023-04-12T05:24:25;99664.21;;;10.18;63.29
44441;BME280;30146;52.268;20.944;2023-04-12T05:26:58;99666.05;;;10.19;63.21
44441;BME280;30146;52.268;20.944;2023-04-12T05:29:29;99663.11;;;10.21;63.08
44441;BME280;30146;52.268;20.944;2023-04-12T05:32:00;99660.17;;;10.23;63.04
44441;BME280;30146;52.268;20.944;2023-04-12T05:34:32;99657.07;;;10.25;63.24
44441;BME280;30146;52.268;20.944;2023-04-12T05:37:03;99658.40;;;10.27;63.14
44441;BME280;30146;52.268;20.944;2023-04-12T05:39:38;99657.48;;;10.31;63.32
44441;BME280;30146;52.268;20.944;2023-04-12T05:42:10;99655.88;;;10.35;63.36
44441;BME280;30146;52.268;20.944;2023-04-12T05:44:41;99657.35;;;10.38;63.35
44441;BME280;30146;52.268;20.944;2023-04-12T05:47:16;99655.59;;;10.41;63.19
44441;BME280;30146;52.268;20.944;2023-04-12T05:49:47;99653.49;;;10.43;63.19
44441;BME280;30146;52.268;20.944;2023-04-12T05:52:19;99649.35;;;10.46;63.21
44441;BME280;30146;52.268;20.944;2023-04-12T05:54:52;99652.22;;;10.48;63.07
44441;BME280;30146;52.268;20.944;2023-04-12T05:57:24;99658.82;;;10.51;63.08
44441;BME280;30146;52.268;20.944;2023-04-12T05:59:55;99658.09;;;10.53;62.96
44441;BME280;30146;52.268;20.944;2023-04-12T06:02:26;99658.55;;;10.55;63.13
44441;BME280;30146;52.268;20.944;2023-04-12T06:04:57;99662.73;;;10.60;63.11
44441;BME280;30146;52.268;20.944;2023-04-12T06:07:30;99660.09;;;10.63;63.05
44441;BME280;30146;52.268;20.944;2023-04-12T06:10:02;99657.98;;;10.67;62.88
44441;BME280;30146;52.268;20.944;2023-04-12T06:12:34;99661.99;;;10.71;63.03
44441;BME280;30146;52.268;20.944;2023-04-12T06:15:07;99661.43;;;10.73;62.80
44441;BME280;30146;52.268;20.944;2023-04-12T06:17:38;99659.47;;;10.77;62.94
44441;BME280;30146;52.268;20.944;2023-04-12T06:20:11;99659.23;;;10.80;62.78
44441;BME280;30146;52.268;20.944;2023-04-12T06:22:43;99658.33;;;10.83;62.40
44441;BME280;30146;52.268;20.944;2023-04-12T06:25:17;99657.67;;;10.81;62.19
44441;BME280;30146;52.268;20.944;2023-04-12T06:27:49;99655.77;;;10.82;62.47
44441;BME280;30146;52.268;20.944;2023-04-12T06:30:21;99655.56;;;10.84;62.21
44441;BME280;30146;52.268;20.944;2023-04-12T06:32:55;99658.58;;;10.87;62.41
44441;BME280;30146;52.268;20.944;2023-04-12T06:35:27;99659.52;;;10.91;62.31
44441;BME280;30146;52.268;20.944;2023-04-12T06:37:58;99658.76;;;10.94;62.12
44441;BME280;30146;52.268;20.944;2023-04-12T06:40:29;99663.77;;;10.99;62.23
44441;BME280;30146;52.268;20.944;2023-04-12T06:43:04;99662.17;;;11.03;62.07
44441;BME280;30146;52.268;20.944;2023-04-12T06:45:39;99658.67;;;11.06;62.18
44441;BME280;30146;52.268;20.944;2023-04-12T06:48:10;99663.74;;;11.09;61.87
44441;BME280;30146;52.268;20.944;2023-04-12T06:50:42;99667.98;;;11.10;61.86
44441;BME280;30146;52.268;20.944;2023-04-12T06:53:14;99668.63;;;11.11;61.80
44441;BME280;30146;52.268;20.944;2023-04-12T06:55:45;99671.15;;;11.14;61.86
44441;BME280;30146;52.268;20.944;2023-04-12T06:58:16;99671.47;;;11.15;61.85
44441;BME280;30146;52.268;20.944;2023-04-12T07:00:47;99670.10;;;11.15;61.70
44441;BME280;30146;52.268;20.944;2023-04-12T07:03:18;99669.73;;;11.16;61.63
44441;BME280;30146;52.268;20.944;2023-04-12T07:05:49;99667.95;;;11.19;61.75
44441;BME280;30146;52.268;20.944;2023-04-12T07:08:20;99671.46;;;11.23;61.72
44441;BME280;30146;52.268;20.944;2023-04-12T07:10:55;99669.87;;;11.25;61.56
44441;BME280;30146;52.268;20.944;2023-04-12T07:13:26;99677.69;;;11.27;61.42
44441;BME280;30146;52.268;20.944;2023-04-12T07:15:57;99675.67;;;11.25;61.13
44441;BME280;30146;52.268;20.944;2023-04-12T07:18:29;99680.25;;;11.20;60.88
44441;BME280;30146;52.268;20.944;2023-04-12T07:21:00;99683.17;;;11.19;60.99
44441;BME280;30146;52.268;20.944;2023-04-12T07:23:31;99682.16;;;11.18;61.23
44441;BME280;30146;52.268;20.944;2023-04-12T07:26:03;99686.57;;;11.21;61.26
44441;BME280;30146;52.268;20.944;2023-04-12T07:28:34;99686.48;;;11.24;61.16
44441;BME280;30146;52.268;20.944;2023-04-12T07:31:07;99680.77;;;11.27;61.28
44441;BME280;30146;52.268;20.944;2023-04-12T07:33:39;99684.17;;;11.29;61.14
44441;BME280;30146;52.268;20.944;2023-04-12T07:36:12;99678.80;;;11.31;61.34
44441;BME280;30146;52.268;20.944;2023-04-12T07:38:45;99676.27;;;11.37;61.29
44441;BME280;30146;52.268;20.944;2023-04-12T07:41:17;99673.13;;;11.40;61.23
44441;BME280;30146;52.268;20.944;2023-04-12T07:43:48;99667.41;;;11.43;61.11
44441;BME280;30146;52.268;20.944;2023-04-12T07:46:19;99666.46;;;11.47;61.08
44441;BME280;30146;52.268;20.944;2023-04-12T07:48:51;99668.77;;;11.50;61.19
44441;BME280;30146;52.268;20.944;2023-04-12T07:51:22;99674.32;;;11.54;61.23
44441;BME280;30146;52.268;20.944;2023-04-12T07:53:53;99674.42;;;11.58;60.95
44441;BME280;30146;52.268;20.944;2023-04-12T07:56:25;99679.85;;;11.59;60.82
44441;BME280;30146;52.268;20.944;2023-04-12T07:58:56;99679.02;;;11.58;60.54
44441;BME280;30146;52.268;20.944;2023-04-12T08:01:27;99681.55;;;11.60;60.72
44441;BME280;30146;52.268;20.944;2023-04-12T08:03:58;99683.02;;;11.63;60.63
44441;BME280;30146;52.268;20.944;2023-04-12T08:06:31;99682.61;;;11.66;60.64
44441;BME280;30146;52.268;20.944;2023-04-12T08:09:03;99684.80;;;11.67;60.62
44441;BME280;30146;52.268;20.944;2023-04-12T08:11:34;99691.60;;;11.69;60.55
44441;BME280;30146;52.268;20.944;2023-04-12T08:14:05;99691.38;;;11.71;60.53
44441;BME280;30146;52.268;20.944;2023-04-12T08:16:36;99683.06;;;11.75;60.64
44441;BME280;30146;52.268;20.944;2023-04-12T08:19:07;99689.62;;;11.79;60.63
44441;BME280;30146;52.268;20.944;2023-04-12T08:21:38;99690.79;;;11.81;60.45
44441;BME280;30146;52.268;20.944;2023-04-12T08:24:09;99691.77;;;11.83;60.32
44441;BME280;30146;52.268;20.944;2023-04-12T08:26:40;99693.30;;;11.83;60.21
44441;BME280;30146;52.268;20.944;2023-04-12T08:29:11;99695.06;;;11.81;60.01
44441;BME280;30146;52.268;20.944;2023-04-12T08:31:43;99689.64;;;11.78;59.97
44441;BME280;30146;52.268;20.944;2023-04-12T08:34:15;99691.09;;;11.76;59.89
44441;BME280;30146;52.268;20.944;2023-04-12T08:36:46;99692.65;;;11.75;60.10
44441;BME280;30146;52.268;20.944;2023-04-12T08:39:19;99706.19;;;11.74;60.21
44441;BME280;30146;52.268;20.944;2023-04-12T08:41:50;99711.55;;;11.72;59.81
44441;BME280;30146;52.268;20.944;2023-04-12T08:44:34;99710.70;;;11.65;59.59
44441;BME280;30146;52.268;20.944;2023-04-12T08:47:08;99715.10;;;11.60;59.81
44441;BME280;30146;52.268;20.944;2023-04-12T08:49:40;99715.61;;;11.52;59.59
44441;BME280;30146;52.268;20.944;2023-04-12T08:52:12;99709.11;;;11.45;59.63
44441;BME280;30146;52.268;20.944;2023-04-12T08:54:43;99704.96;;;11.39;59.80
44441;BME280;30146;52.268;20.944;2023-04-12T08:57:14;99699.99;;;11.40;60.04
44441;BME280;30146;52.268;20.944;2023-04-12T08:59:47;99689.39;;;11.47;60.47
44441;BME280;30146;52.268;20.944;2023-04-12T09:02:20;99674.29;;;11.63;60.80
44441;BME280;30146;52.268;20.944;2023-04-12T09:04:52;99659.16;;;11.86;61.04
44441;BME280;30146;52.268;20.944;2023-04-12T09:07:23;99656.98;;;12.11;61.30
44441;BME280;30146;52.268;20.944;2023-04-12T09:09:59;99654.83;;;12.40;61.28
44441;BME280;30146;52.268;20.944;2023-04-12T09:12:33;99653.64;;;12.70;61.29
44441;BME280;30146;52.268;20.944;2023-04-12T09:15:09;99656.29;;;12.96;60.98
44441;BME280;30146;52.268;20.944;2023-04-12T09:17:42;99656.99;;;13.18;60.43
44441;BME280;30146;52.268;20.944;2023-04-12T09:20:24;99656.63;;;13.30;59.79
44441;BME280;30146;52.268;20.944;2023-04-12T09:22:57;99658.61;;;13.33;58.98
44441;BME280;30146;52.268;20.944;2023-04-12T09:25:40;99663.07;;;13.26;58.49
44441;BME280;30146;52.268;20.944;2023-04-12T09:28:22;99664.89;;;13.18;58.15
44441;BME280;30146;52.268;20.944;2023-04-12T09:30:54;99660.73;;;13.19;58.62
44441;BME280;30146;52.268;20.944;2023-04-12T09:33:34;99654.86;;;13.32;58.90
44441;BME280;30146;52.268;20.944;2023-04-12T09:36:07;99657.30;;;13.47;58.91
44441;BME280;30146;52.268;20.944;2023-04-12T09:38:58;99656.44;;;13.58;58.75
44441;BME280;30146;52.268;20.944;2023-04-12T09:41:30;99655.23;;;13.69;58.51
44441;BME280;30146;52.268;20.944;2023-04-12T09:44:02;99651.69;;;13.77;58.26
44441;BME280;30146;52.268;20.944;2023-04-12T09:46:33;99654.58;;;13.88;58.19
44441;BME280;30146;52.268;20.944;2023-04-12T09:49:05;99654.55;;;13.99;57.96
44441;BME280;30146;52.268;20.944;2023-04-12T09:51:36;99649.42;;;14.03;57.38
44441;BME280;30146;52.268;20.944;2023-04-12T09:54:07;99642.83;;;14.05;57.19
44441;BME280;30146;52.268;20.944;2023-04-12T09:56:39;99641.92;;;14.16;57.24
44441;BME280;30146;52.268;20.944;2023-04-12T09:59:11;99647.04;;;14.37;57.20
44441;BME280;30146;52.268;20.944;2023-04-12T10:01:46;99642.39;;;14.61;57.02
44441;BME280;30146;52.268;20.944;2023-04-12T10:04:19;99644.81;;;14.83;57.00
44441;BME280;30146;52.268;20.944;2023-04-12T10:06:51;99645.29;;;15.02;56.54
44441;BME280;30146;52.268;20.944;2023-04-12T10:09:22;99642.73;;;15.19;56.41
44441;BME280;30146;52.268;20.944;2023-04-12T10:11:53;99645.20;;;15.31;56.16
44441;BME280;30146;52.268;20.944;2023-04-12T10:14:28;99649.20;;;15.38;55.76
44441;BME280;30146;52.268;20.944;2023-04-12T10:17:01;99650.27;;;15.38;55.12
44441;BME280;30146;52.268;20.944;2023-04-12T10:19:33;99653.15;;;15.35;54.76
44441;BME280;30146;52.268;20.944;2023-04-12T10:22:04;99653.55;;;15.29;54.70
44441;BME280;30146;52.268;20.944;2023-04-12T10:24:38;99649.64;;;15.23;54.53
44441;BME280;30146;52.268;20.944;2023-04-12T10:27:09;99655.89;;;15.18;54.36
44441;BME280;30146;52.268;20.944;2023-04-12T10:29:42;99658.13;;;15.18;54.47
44441;BME280;30146;52.268;20.944;2023-04-12T10:32:20;99655.99;;;15.15;54.22
44441;BME280;30146;52.268;20.944;2023-04-12T10:34:55;99660.47;;;15.11;54.24
44441;BME280;30146;52.268;20.944;2023-04-12T10:37:58;99657.09;;;15.09;54.22
44441;BME280;30146;52.268;20.944;2023-04-12T10:40:30;99660.11;;;15.07;54.11
44441;BME280;30146;52.268;20.944;2023-04-12T10:43:25;99662.81;;;15.03;54.12
44441;BME280;30146;52.268;20.944;2023-04-12T10:45:57;99664.27;;;15.02;54.13
44441;BME280;30146;52.268;20.944;2023-04-12T10:48:34;99658.81;;;15.00;53.97
44441;BME280;30146;52.268;20.944;2023-04-12T10:51:16;99658.95;;;15.01;54.05
44441;BME280;30146;52.268;20.944;2023-04-12T10:53:52;99656.48;;;15.02;53.94
44441;BME280;30146;52.268;20.944;2023-04-12T10:56:40;99655.73;;;15.04;53.65
44441;BME280;30146;52.268;20.944;2023-04-12T10:59:21;99644.44;;;15.06;53.58
44441;BME280;30146;52.268;20.944;2023-04-12T11:02:12;99645.73;;;15.13;53.62
44441;BME280;30146;52.268;20.944;2023-04-12T11:05:05;99645.11;;;15.25;53.68
44441;BME280;30146;52.268;20.944;2023-04-12T11:08:02;99643.46;;;15.44;53.58
44441;BME280;30146;52.268;20.944;2023-04-12T11:10:53;99639.13;;;15.66;53.56
44441;BME280;30146;52.268;20.944;2023-04-12T11:13:37;99633.95;;;15.95;53.87
44441;BME280;30146;52.268;20.944;2023-04-12T11:16:09;99629.21;;;16.29;53.53
44441;BME280;30146;52.268;20.944;2023-04-12T11:18:43;99625.16;;;16.61;53.39
44441;BME280;30146;52.268;20.944;2023-04-12T11:21:16;99620.58;;;16.87;52.97
44441;BME280;30146;52.268;20.944;2023-04-12T11:23:49;99620.38;;;17.02;52.28
44441;BME280;30146;52.268;20.944;2023-04-12T11:26:21;99615.52;;;17.13;51.65
44441;BME280;30146;52.268;20.944;2023-04-12T11:28:52;99618.84;;;17.23;51.47
44441;BME280;30146;52.268;20.944;2023-04-12T11:31:30;99614.80;;;17.28;50.87
44441;BME280;30146;52.268;20.944;2023-04-12T11:45:59;99597.98;;;17.05;49.43
44441;BME280;30146;52.268;20.944;2023-04-12T11:48:33;99593.98;;;16.98;49.54
44441;BME280;30146;52.268;20.944;2023-04-12T11:51:21;99592.03;;;16.99;49.78
44441;BME280;30146;52.268;20.944;2023-04-12T11:53:55;99592.36;;;17.03;49.78
44441;BME280;30146;52.268;20.944;2023-04-12T11:56:28;99593.90;;;17.07;49.68
44441;BME280;30146;52.268;20.944;2023-04-12T11:59:01;99590.77;;;17.04;49.24
44441;BME280;30146;52.268;20.944;2023-04-12T12:01:34;99588.48;;;17.04;49.34
44441;BME280;30146;52.268;20.944;2023-04-12T12:04:06;99584.70;;;17.08;49.12
44441;BME280;30146;52.268;20.944;2023-04-12T12:06:37;99581.09;;;17.14;49.16
44441;BME280;30146;52.268;20.944;2023-04-12T12:09:09;99575.30;;;17.20;49.22
44441;BME280;30146;52.268;20.944;2023-04-12T12:11:41;99570.56;;;17.25;49.05
44441;BME280;30146;52.268;20.944;2023-04-12T12:14:12;99569.02;;;17.32;49.22
44441;BME280;30146;52.268;20.944;2023-04-12T12:16:56;99562.33;;;17.38;49.22
44441;BME280;30146;52.268;20.944;2023-04-12T12:19:39;99557.05;;;17.43;49.15
44441;BME280;30146;52.268;20.944;2023-04-12T12:25:30;99546.95;;;17.48;48.94
44441;BME280;30146;52.268;20.944;2023-04-12T12:28:01;99545.49;;;17.50;48.73
44441;BME280;30146;52.268;20.944;2023-04-12T12:30:38;99540.59;;;17.48;48.64
44441;BME280;30146;52.268;20.944;2023-04-12T12:33:26;99537.36;;;17.44;48.40
44441;BME280;30146;52.268;20.944;2023-04-12T12:36:38;99532.19;;;17.36;48.28
44441;BME280;30146;52.268;20.944;2023-04-12T12:39:11;99533.54;;;17.34;48.34
44441;BME280;30146;52.268;20.944;2023-04-12T12:41:53;99529.86;;;17.31;48.47
44441;BME280;30146;52.268;20.944;2023-04-12T12:44:25;99529.88;;;17.31;48.39
44441;BME280;30146;52.268;20.944;2023-04-12T12:46:59;99528.77;;;17.28;48.37
44441;BME280;30146;52.268;20.944;2023-04-12T12:49:40;99533.13;;;17.24;48.25
44441;BME280;30146;52.268;20.944;2023-04-12T12:52:25;99530.77;;;17.20;48.17
44441;BME280;30146;52.268;20.944;2023-04-12T12:55:34;99525.45;;;17.16;48.14
44441;BME280;30146;52.268;20.944;2023-04-12T12:58:05;99523.35;;;17.09;48.12
44441;BME280;30146;52.268;20.944;2023-04-12T13:00:37;99523.64;;;17.03;48.07
44441;BME280;30146;52.268;20.944;2023-04-12T13:03:14;99521.63;;;16.99;48.19
44441;BME280;30146;52.268;20.944;2023-04-12T13:05:46;99517.91;;;16.93;47.98
44441;BME280;30146;52.268;20.944;2023-04-12T13:08:17;99518.19;;;16.87;48.00
44441;BME280;30146;52.268;20.944;2023-04-12T13:10:48;99517.58;;;16.82;48.10
44441;BME280;30146;52.268;20.944;2023-04-12T13:16:46;99509.12;;;16.74;48.49
44441;BME280;30146;52.268;20.944;2023-04-12T13:19:18;99506.88;;;16.74;48.46
44441;BME280;30146;52.268;20.944;2023-04-12T13:21:50;99505.20;;;16.73;48.51
44441;BME280;30146;52.268;20.944;2023-04-12T13:24:22;99500.51;;;16.70;48.42
44441;BME280;30146;52.268;20.944;2023-04-12T13:26:53;99496.35;;;16.67;48.47
44441;BME280;30146;52.268;20.944;2023-04-12T13:29:24;99493.80;;;16.63;48.35
44441;BME280;30146;52.268;20.944;2023-04-12T13:31:56;99492.80;;;16.59;48.48
44441;BME280;30146;52.268;20.944;2023-04-12T13:34:27;99493.45;;;16.56;48.51
44441;BME280;30146;52.268;20.944;2023-04-12T13:36:58;99488.34;;;16.50;48.44
44441;BME280;30146;52.268;20.944;2023-04-12T13:39:31;99486.77;;;16.48;48.64
44441;BME280;30146;52.268;20.944;2023-04-12T13:42:03;99485.55;;;16.44;48.49
44441;BME280;30146;52.268;20.944;2023-04-12T13:44:34;99480.20;;;16.41;48.43
44441;BME280;30146;52.268;20.944;2023-04-12T13:47:05;99482.64;;;16.33;48.01
44441;BME280;30146;52.268;20.944;2023-04-12T13:49:36;99482.31;;;16.21;47.95